KOKB

Bob Maxwell Memorial Airfield Airport

Oceanside, California, USA
METAR KOKB 280052Z AUTO 25009KT 10SM CLR 19/12 A2991 RMK AO2 SLP126 T01940122
Observed Flight Rules
May-28 @ 00:52 UTC (20 minutes ago) Visual Flight Rules
Wind Visibility Clouds
250° at 9 knots 10 miles
  • Clear skies
Temperatures Readings
Current 19°C / 66°F
Dewpoint 12°C / 54°F
Humidity 64%
Altimeter 29.91" Hg
Pressure 1012.6 hPa
Elevation 8
METAR KOKB 280052Z AUTO 25009KT 10SM CLR 19/12 A2991 RMK AO2 SLP126 T01940122
Observed Flight Rules
May-28 @ 00:52 UTC
(20 minutes ago)
VFR
Wind Visibility
250° at 9 knots 10 miles
Clouds
  • Clear skies
Temperature Dewpoint
19°C / 66°F 12°C / 54°F
Humidity Altimeter Pressure
64% 29.91" Hg 1012.6 hPa